• Join FlightAware (Why Join?)
  • Login
  • US Flag 
01:00PM EDT


 

Airport Tracker/Info


-or-


 

Live Flight TrackerFlight Track Log ✈ N983CA ✈ 19-Apr-2013 ✈ KLAX - KFAT

Flight Track Log - Related Links

Times and Time Zones

All times are in EDT time to prevent confusion due to time zone crossing. See the N983CA flight status page for this flight to view local times or setup timezone preferences in your user account.

Time Position Orientation Groundspeed Altitude Reporting Facility
EDT Latitude Longitude Course Direction KTS MPH feet Rate Location/Type
02:11AM 33.9444 -118.4550 296° West 158 182 1,300  Level Los Angeles Center
02:13AM 33.9358 -118.5222 261° West 201 231 3,300 2,280 Climbing Los Angeles Center
02:14AM 33.9267 -118.6078 263° West 256 295 6,000 2,640 Climbing Los Angeles Center
02:15AM 33.9139 -118.7061 261° West 275 316 8,700 2,280 Climbing Los Angeles Center
02:16AM 33.9000 -118.7900 259° West 294 338 10,700 2,280 Climbing Los Angeles Center
02:17AM 34.0722 -118.9054 296° West  Level FlightAware Approximate
02:17AM 33.8817 -118.8906 258° West 308 354 13,400  Level Los Angeles Center
02:18AM 33.8683 -118.9886 261° West 302 348 15,600 1,740 Climbing Los Angeles Center
02:19AM 33.9372 -119.0381 329° Northwest 304 350 17,000 1,140 Climbing Los Angeles Center
02:20AM 34.0436 -119.0725 345° North 330 380 18,000 840 Climbing Los Angeles Center
02:21AM 34.1456 -119.0781 357° North 366 421 18,800 960 Climbing Los Angeles Center
02:22AM 34.2503 -119.0739 North 374 430 20,000 1,080 Climbing Los Angeles Center
02:23AM 34.3547 -119.0711 North 376 433 21,000 780 Climbing Los Angeles Center
02:24AM 34.4622 -119.0678 North 384 442 21,600 480 Climbing Los Angeles Center
02:25AM 34.5731 -119.0856 352° North 401 461 22,000 180 Climbing Los Angeles Center
02:26AM 34.6842 -119.1094 350° North 404 465 22,000  Level Los Angeles Center
02:27AM 34.7886 -119.1294 351° North 422 486 22,000  Level Los Angeles Center
02:28AM 34.9264 -119.1578 350° North 422 486 22,000  Level Los Angeles Center
02:29AM 35.0408 -119.1814 350° North 420 483 22,000 -60 Level Los Angeles Center
02:30AM 35.1550 -119.2056 350° North 418 481 21,900  Descending Los Angeles Center
02:31AM 35.2694 -119.2292 350° North 418 481 22,000  Climbing Los Angeles Center
02:32AM 35.3839 -119.2525 351° North 418 481 22,000 -60 Level Los Angeles Center
02:33AM 35.4978 -119.2769 350° North 417 480 21,900 -60 Descending Los Angeles Center
02:34AM 35.6122 -119.3014 350° North 418 481 21,900  Level Los Angeles Center
02:35AM 35.7244 -119.3250 350° North 414 476 22,000  Climbing Los Angeles Center
02:36AM 35.8381 -119.3494 350° North 415 478 22,000 -600 Level Los Angeles Center
02:37AM 35.9497 -119.3733 350° North 411 473 20,800 -2,100 Descending Los Angeles Center
02:38AM 36.0581 -119.3986 349° North 403 464 17,800 -2,940 Descending Los Angeles Center
02:39AM 36.1619 -119.4219 350° North 390 449 14,900 -2,820 Descending Los Angeles Center
02:40AM 36.2617 -119.4433 350° North 380 437 12,200 -2,340 Descending Los Angeles Center
02:41AM 36.3714 -119.4675 350° North 355 409 10,200 -1,920 Descending Los Angeles Center
02:42AM 36.4431 -119.4883 347° North 307 353 8,300 -1,800 Descending Los Angeles Center
02:43AM 36.5114 -119.5197 340° North 266 306 6,300 -2,100 Descending Oakland Center
02:44AM 36.5753 -119.5508 339° North 250 288 3,900 -1,920 Descending Oakland Center
02:45AM 36.6433 -119.5850 338° Northwest 237 273 2,500 -720 Descending Oakland Center
02:46AM 36.6861 -119.6058 339° North 198 228 2,500 -300 Level Oakland Center
02:47AM 36.7281 -119.6367 329° Northwest 143 165 1,900 -720 Descending Oakland Center
02:48AM 36.7481 -119.6708 306° West 128 147 1,100 -720 Descending Oakland Center
02:49AM 36.7681 -119.7061 305° West 126 145 500 -600 Descending Oakland Center